sensor_id;sensor_type;location;lat;lon;timestamp;pressure;altitude;pressure_sealevel;temperature;humidity
37368;BME280;23240;43.210;27.910;2023-04-25T00:00:28;100538.53;;;12.06;100.00
37368;BME280;23240;43.210;27.910;2023-04-25T00:02:53;100534.16;;;12.05;100.00
37368;BME280;23240;43.210;27.910;2023-04-25T00:05:18;100529.31;;;11.99;100.00
37368;BME280;23240;43.210;27.910;2023-04-25T00:07:44;100532.00;;;11.99;100.00
37368;BME280;23240;43.210;27.910;2023-04-25T00:10:10;100521.56;;;11.96;100.00
37368;BME280;23240;43.210;27.910;2023-04-25T00:12:36;100523.25;;;11.97;100.00
37368;BME280;23240;43.210;27.910;2023-04-25T00:15:02;100518.44;;;11.91;100.00
37368;BME280;23240;43.210;27.910;2023-04-25T00:17:28;100516.34;;;11.85;100.00
37368;BME280;23240;43.210;27.910;2023-04-25T00:19:53;100517.88;;;11.87;100.00
37368;BME280;23240;43.210;27.910;2023-04-25T00:22:19;100512.91;;;11.82;100.00
37368;BME280;23240;43.210;27.910;2023-04-25T00:24:44;100508.97;;;11.87;100.00
37368;BME280;23240;43.210;27.910;2023-04-25T00:27:09;100507.97;;;11.88;100.00
37368;BME280;23240;43.210;27.910;2023-04-25T00:29:35;100508.13;;;11.86;100.00
37368;BME280;23240;43.210;27.910;2023-04-25T00:32:00;100500.22;;;11.85;100.00
37368;BME280;23240;43.210;27.910;2023-04-25T00:34:26;100497.66;;;11.83;100.00
37368;BME280;23240;43.210;27.910;2023-04-25T00:36:51;100492.69;;;11.78;100.00
37368;BME280;23240;43.210;27.910;2023-04-25T00:39:16;100495.78;;;11.74;100.00
37368;BME280;23240;43.210;27.910;2023-04-25T00:41:42;100484.19;;;11.73;100.00
37368;BME280;23240;43.210;27.910;2023-04-25T00:44:08;100492.53;;;11.70;100.00
37368;BME280;23240;43.210;27.910;2023-04-25T00:46:36;100490.13;;;11.67;100.00
37368;BME280;23240;43.210;27.910;2023-04-25T00:49:01;100491.81;;;11.68;100.00
37368;BME280;23240;43.210;27.910;2023-04-25T00:51:27;100487.72;;;11.64;100.00
37368;BME280;23240;43.210;27.910;2023-04-25T00:53:52;100487.03;;;11.72;100.00
37368;BME280;23240;43.210;27.910;2023-04-25T00:56:18;100485.34;;;11.71;100.00
37368;BME280;23240;43.210;27.910;2023-04-25T00:58:43;100482.78;;;11.69;100.00
37368;BME280;23240;43.210;27.910;2023-04-25T01:01:10;100476.56;;;11.69;100.00
37368;BME280;23240;43.210;27.910;2023-04-25T01:03:36;100478.56;;;11.67;100.00
37368;BME280;23240;43.210;27.910;2023-04-25T01:06:05;100481.94;;;11.69;100.00
37368;BME280;23240;43.210;27.910;2023-04-25T01:08:31;100484.50;;;11.70;100.00
37368;BME280;23240;43.210;27.910;2023-04-25T01:10:56;100475.72;;;11.68;100.00
37368;BME280;23240;43.210;27.910;2023-04-25T01:13:22;100461.75;;;11.74;100.00
37368;BME280;23240;43.210;27.910;2023-04-25T01:15:47;100468.69;;;11.77;100.00
37368;BME280;23240;43.210;27.910;2023-04-25T01:18:12;100461.31;;;11.69;100.00
37368;BME280;23240;43.210;27.910;2023-04-25T01:20:38;100461.31;;;11.69;100.00
37368;BME280;23240;43.210;27.910;2023-04-25T01:23:03;100458.19;;;11.64;100.00
37368;BME280;23240;43.210;27.910;2023-04-25T01:25:30;100458.19;;;11.64;100.00
37368;BME280;23240;43.210;27.910;2023-04-25T01:27:55;100452.00;;;11.64;100.00
37368;BME280;23240;43.210;27.910;2023-04-25T01:30:21;100450.88;;;11.66;100.00
37368;BME280;23240;43.210;27.910;2023-04-25T01:32:46;100452.56;;;11.67;100.00
37368;BME280;23240;43.210;27.910;2023-04-25T01:35:12;100447.19;;;11.67;100.00
37368;BME280;23240;43.210;27.910;2023-04-25T01:40:03;100443.66;;;11.67;100.00
37368;BME280;23240;43.210;27.910;2023-04-25T01:42:30;100441.00;;;11.67;100.00
37368;BME280;23240;43.210;27.910;2023-04-25T01:44:56;100442.41;;;11.71;100.00
37368;BME280;23240;43.210;27.910;2023-04-25T01:47:21;100436.22;;;11.80;100.00
37368;BME280;23240;43.210;27.910;2023-04-25T01:49:46;100433.38;;;11.81;100.00
37368;BME280;23240;43.210;27.910;2023-04-25T01:52:12;100430.31;;;11.86;100.00
37368;BME280;23240;43.210;27.910;2023-04-25T01:54:37;100423.78;;;11.89;100.00
37368;BME280;23240;43.210;27.910;2023-04-25T01:57:02;100414.03;;;11.88;100.00
37368;BME280;23240;43.210;27.910;2023-04-25T01:59:28;100414.78;;;11.90;100.00
37368;BME280;23240;43.210;27.910;2023-04-25T02:01:53;100412.09;;;11.90;100.00
37368;BME280;23240;43.210;27.910;2023-04-25T02:04:19;100412.09;;;11.90;100.00
37368;BME280;23240;43.210;27.910;2023-04-25T02:06:44;100394.56;;;11.86;100.00
37368;BME280;23240;43.210;27.910;2023-04-25T02:09:09;100401.31;;;11.80;100.00
37368;BME280;23240;43.210;27.910;2023-04-25T02:11:35;100394.38;;;11.77;100.00
37368;BME280;23240;43.210;27.910;2023-04-25T02:14:00;100396.38;;;11.75;100.00
37368;BME280;23240;43.210;27.910;2023-04-25T02:16:25;100398.91;;;11.77;100.00
37368;BME280;23240;43.210;27.910;2023-04-25T02:18:50;100401.16;;;11.81;100.00
37368;BME280;23240;43.210;27.910;2023-04-25T02:21:17;100406.00;;;11.88;100.00
37368;BME280;23240;43.210;27.910;2023-04-25T02:23:43;100400.78;;;11.96;100.00
37368;BME280;23240;43.210;27.910;2023-04-25T02:26:10;100387.78;;;12.01;100.00
37368;BME280;23240;43.210;27.910;2023-04-25T02:28:38;100386.34;;;11.97;100.00
37368;BME280;23240;43.210;27.910;2023-04-25T02:31:03;100377.72;;;11.93;100.00
37368;BME280;23240;43.210;27.910;2023-04-25T02:33:28;100378.16;;;11.89;100.00
37368;BME280;23240;43.210;27.910;2023-04-25T02:35:54;100370.41;;;11.86;100.00
37368;BME280;23240;43.210;27.910;2023-04-25T02:38:20;100369.56;;;11.85;100.00
37368;BME280;23240;43.210;27.910;2023-04-25T02:40:45;100373.19;;;11.74;100.00
37368;BME280;23240;43.210;27.910;2023-04-25T02:43:10;100371.50;;;11.73;100.00
37368;BME280;23240;43.210;27.910;2023-04-25T02:45:36;100363.88;;;11.78;100.00
37368;BME280;23240;43.210;27.910;2023-04-25T02:48:02;100363.59;;;11.81;100.00
37368;BME280;23240;43.210;27.910;2023-04-25T02:50:28;100358.22;;;11.81;100.00
37368;BME280;23240;43.210;27.910;2023-04-25T02:52:53;100360.06;;;11.81;100.00
37368;BME280;23240;43.210;27.910;2023-04-25T02:55:18;100358.81;;;11.75;100.00
37368;BME280;23240;43.210;27.910;2023-04-25T02:57:44;100353.13;;;11.78;100.00
37368;BME280;23240;43.210;27.910;2023-04-25T03:00:10;100355.41;;;11.73;100.00
37368;BME280;23240;43.210;27.910;2023-04-25T03:02:39;100362.19;;;11.77;100.00
37368;BME280;23240;43.210;27.910;2023-04-25T03:05:04;100360.78;;;11.73;100.00
37368;BME280;23240;43.210;27.910;2023-04-25T03:07:31;100352.03;;;11.71;100.00
37368;BME280;23240;43.210;27.910;2023-04-25T03:09:56;100355.13;;;11.76;100.00
37368;BME280;23240;43.210;27.910;2023-04-25T03:12:21;100353.03;;;11.80;100.00
37368;BME280;23240;43.210;27.910;2023-04-25T03:14:47;100352.03;;;11.81;100.00
37368;BME280;23240;43.210;27.910;2023-04-25T03:17:12;100349.75;;;11.76;100.00
37368;BME280;23240;43.210;27.910;2023-04-25T03:19:39;100354.28;;;11.76;100.00
37368;BME280;23240;43.210;27.910;2023-04-25T03:22:05;100349.47;;;11.79;100.00
37368;BME280;23240;43.210;27.910;2023-04-25T03:24:30;100345.25;;;11.87;100.00
37368;BME280;23240;43.210;27.910;2023-04-25T03:26:55;100345.41;;;11.85;100.00
37368;BME280;23240;43.210;27.910;2023-04-25T03:29:21;100345.69;;;11.82;100.00
37368;BME280;23240;43.210;27.910;2023-04-25T03:31:49;100343.56;;;11.86;100.00
37368;BME280;23240;43.210;27.910;2023-04-25T03:34:14;100342.44;;;11.88;100.00
37368;BME280;23240;43.210;27.910;2023-04-25T03:36:40;100339.22;;;11.85;100.00
37368;BME280;23240;43.210;27.910;2023-04-25T03:39:05;100341.31;;;11.91;100.00
37368;BME280;23240;43.210;27.910;2023-04-25T03:41:31;100340.16;;;11.93;100.00
37368;BME280;23240;43.210;27.910;2023-04-25T03:43:56;100336.50;;;11.94;100.00
37368;BME280;23240;43.210;27.910;2023-04-25T03:46:21;100332.00;;;11.85;100.00
37368;BME280;23240;43.210;27.910;2023-04-25T03:48:47;100339.44;;;11.81;100.00
37368;BME280;23240;43.210;27.910;2023-04-25T03:51:12;100333.50;;;11.78;100.00
37368;BME280;23240;43.210;27.910;2023-04-25T03:53:37;100339.06;;;11.86;100.00
37368;BME280;23240;43.210;27.910;2023-04-25T03:56:03;100342.72;;;11.95;100.00
37368;BME280;23240;43.210;27.910;2023-04-25T03:58:28;100337.34;;;11.95;100.00
37368;BME280;23240;43.210;27.910;2023-04-25T04:00:54;100338.19;;;11.95;100.00
37368;BME280;23240;43.210;27.910;2023-04-25T04:03:19;100333.38;;;11.89;100.00
37368;BME280;23240;43.210;27.910;2023-04-25T04:05:45;100332.25;;;11.92;100.00
37368;BME280;23240;43.210;27.910;2023-04-25T04:08:11;100334.38;;;11.88;100.00
37368;BME280;23240;43.210;27.910;2023-04-25T04:10:36;100330.41;;;11.92;100.00
37368;BME280;23240;43.210;27.910;2023-04-25T04:13:02;100324.47;;;11.98;100.00
37368;BME280;23240;43.210;27.910;2023-04-25T04:15:27;100322.75;;;12.07;100.00
37368;BME280;23240;43.210;27.910;2023-04-25T04:17:53;100324.56;;;12.16;100.00
37368;BME280;23240;43.210;27.910;2023-04-25T04:20:19;100315.94;;;12.22;100.00
37368;BME280;23240;43.210;27.910;2023-04-25T04:22:44;100312.69;;;12.28;100.00
37368;BME280;23240;43.210;27.910;2023-04-25T04:25:09;100315.19;;;12.40;100.00
37368;BME280;23240;43.210;27.910;2023-04-25T04:27:36;100316.25;;;12.47;100.00
37368;BME280;23240;43.210;27.910;2023-04-25T04:30:02;100303.63;;;12.57;100.00
37368;BME280;23240;43.210;27.910;2023-04-25T04:32:28;100313.19;;;12.69;100.00
37368;BME280;23240;43.210;27.910;2023-04-25T04:34:55;100302.84;;;12.74;100.00
37368;BME280;23240;43.210;27.910;2023-04-25T04:37:20;100305.94;;;12.79;100.00
37368;BME280;23240;43.210;27.910;2023-04-25T04:39:46;100305.31;;;12.85;100.00
37368;BME280;23240;43.210;27.910;2023-04-25T04:42:12;100302.06;;;13.09;100.00
37368;BME280;23240;43.210;27.910;2023-04-25T04:44:38;100298.13;;;13.49;100.00
37368;BME280;23240;43.210;27.910;2023-04-25T04:47:04;100295.81;;;13.98;100.00
37368;BME280;23240;43.210;27.910;2023-04-25T04:49:31;100290.63;;;14.39;100.00
37368;BME280;23240;43.210;27.910;2023-04-25T04:51:56;100283.53;;;14.64;100.00
37368;BME280;23240;43.210;27.910;2023-04-25T04:54:22;100282.28;;;14.93;100.00
37368;BME280;23240;43.210;27.910;2023-04-25T04:56:47;100288.66;;;14.83;100.00
37368;BME280;23240;43.210;27.910;2023-04-25T04:59:12;100283.03;;;14.60;100.00
37368;BME280;23240;43.210;27.910;2023-04-25T05:01:38;100286.56;;;14.61;100.00
37368;BME280;23240;43.210;27.910;2023-04-25T05:04:03;100292.22;;;14.50;100.00
37368;BME280;23240;43.210;27.910;2023-04-25T05:06:28;100290.25;;;14.52;100.00
37368;BME280;23240;43.210;27.910;2023-04-25T05:08:54;100282.47;;;14.49;100.00
37368;BME280;23240;43.210;27.910;2023-04-25T05:11:20;100278.50;;;14.69;100.00
37368;BME280;23240;43.210;27.910;2023-04-25T05:13:46;100269.34;;;15.12;100.00
37368;BME280;23240;43.210;27.910;2023-04-25T05:16:11;100278.66;;;15.34;100.00
37368;BME280;23240;43.210;27.910;2023-04-25T05:18:37;100282.03;;;15.45;100.00
37368;BME280;23240;43.210;27.910;2023-04-25T05:21:02;100288.47;;;16.01;100.00
37368;BME280;23240;43.210;27.910;2023-04-25T05:23:27;100285.31;;;16.36;100.00
37368;BME280;23240;43.210;27.910;2023-04-25T05:25:54;100278.50;;;16.57;100.00
37368;BME280;23240;43.210;27.910;2023-04-25T05:28:19;100280.97;;;16.75;100.00
37368;BME280;23240;43.210;27.910;2023-04-25T05:30:46;100280.16;;;16.74;100.00
37368;BME280;23240;43.210;27.910;2023-04-25T05:33:11;100263.25;;;17.03;100.00
37368;BME280;23240;43.210;27.910;2023-04-25T05:35:36;100266.72;;;17.35;100.00
37368;BME280;23240;43.210;27.910;2023-04-25T05:38:02;100272.41;;;17.48;100.00
37368;BME280;23240;43.210;27.910;2023-04-25T05:40:27;100269.16;;;17.76;100.00
37368;BME280;23240;43.210;27.910;2023-04-25T05:42:52;100265.16;;;17.86;100.00
37368;BME280;23240;43.210;27.910;2023-04-25T05:45:17;100261.69;;;17.92;100.00
37368;BME280;23240;43.210;27.910;2023-04-25T05:47:43;100265.63;;;17.67;100.00
37368;BME280;23240;43.210;27.910;2023-04-25T05:50:08;100260.00;;;17.31;100.00
37368;BME280;23240;43.210;27.910;2023-04-25T05:52:34;100260.88;;;17.00;100.00
37368;BME280;23240;43.210;27.910;2023-04-25T05:54:59;100257.00;;;17.03;100.00
37368;BME280;23240;43.210;27.910;2023-04-25T05:57:25;100250.25;;;16.99;100.00
37368;BME280;23240;43.210;27.910;2023-04-25T05:59:51;100249.25;;;16.91;100.00
37368;BME280;23240;43.210;27.910;2023-04-25T06:02:17;100261.56;;;16.63;100.00
37368;BME280;23240;43.210;27.910;2023-04-25T06:04:42;100252.97;;;16.59;100.00
37368;BME280;23240;43.210;27.910;2023-04-25T06:07:07;100260.78;;;16.46;100.00
37368;BME280;23240;43.210;27.910;2023-04-25T06:09:33;100258.19;;;16.61;100.00
37368;BME280;23240;43.210;27.910;2023-04-25T06:11:58;100251.69;;;16.39;100.00
37368;BME280;23240;43.210;27.910;2023-04-25T06:14:24;100243.44;;;16.32;100.00
37368;BME280;23240;43.210;27.910;2023-04-25T06:16:49;100239.38;;;16.36;100.00
37368;BME280;23240;43.210;27.910;2023-04-25T06:19:14;100242.59;;;16.32;100.00
37368;BME280;23240;43.210;27.910;2023-04-25T06:21:39;100242.59;;;16.40;100.00
37368;BME280;23240;43.210;27.910;2023-04-25T06:24:05;100246.47;;;16.37;100.00
37368;BME280;23240;43.210;27.910;2023-04-25T06:26:30;100244.47;;;16.23;100.00
37368;BME280;23240;43.210;27.910;2023-04-25T06:28:55;100234.06;;;16.12;100.00
37368;BME280;23240;43.210;27.910;2023-04-25T06:31:21;100241.84;;;16.15;100.00
37368;BME280;23240;43.210;27.910;2023-04-25T06:33:46;100240.16;;;16.06;100.00
37368;BME280;23240;43.210;27.910;2023-04-25T06:36:13;100232.00;;;16.22;100.00
37368;BME280;23240;43.210;27.910;2023-04-25T06:38:38;100231.38;;;16.51;100.00
37368;BME280;23240;43.210;27.910;2023-04-25T06:41:03;100226.94;;;16.58;100.00
37368;BME280;23240;43.210;27.910;2023-04-25T06:43:29;100227.91;;;16.65;100.00
37368;BME280;23240;43.210;27.910;2023-04-25T06:45:58;100227.38;;;16.78;100.00
37368;BME280;23240;43.210;27.910;2023-04-25T06:48:23;100219.94;;;16.80;100.00
37368;BME280;23240;43.210;27.910;2023-04-25T06:50:48;100218.28;;;17.02;100.00
37368;BME280;23240;43.210;27.910;2023-04-25T06:53:14;100214.59;;;17.18;100.00
37368;BME280;23240;43.210;27.910;2023-04-25T06:55:39;100225.50;;;17.70;100.00
37368;BME280;23240;43.210;27.910;2023-04-25T06:58:05;100237.31;;;17.92;100.00
37368;BME280;23240;43.210;27.910;2023-04-25T07:00:30;100231.06;;;18.07;100.00
37368;BME280;23240;43.210;27.910;2023-04-25T07:02:57;100230.97;;;17.85;100.00
37368;BME280;23240;43.210;27.910;2023-04-25T07:05:22;100234.88;;;18.12;100.00
37368;BME280;23240;43.210;27.910;2023-04-25T07:07:47;100224.03;;;18.27;100.00
37368;BME280;23240;43.210;27.910;2023-04-25T07:10:12;100223.00;;;17.98;100.00
37368;BME280;23240;43.210;27.910;2023-04-25T07:12:38;100219.38;;;18.21;100.00
37368;BME280;23240;43.210;27.910;2023-04-25T07:15:03;100225.91;;;18.41;100.00
37368;BME280;23240;43.210;27.910;2023-04-25T07:17:31;100219.88;;;18.61;100.00
37368;BME280;23240;43.210;27.910;2023-04-25T07:19:57;100209.91;;;18.97;100.00
37368;BME280;23240;43.210;27.910;2023-04-25T07:22:22;100213.00;;;18.94;99.20
37368;BME280;23240;43.210;27.910;2023-04-25T07:24:47;100215.59;;;18.81;99.48
37368;BME280;23240;43.210;27.910;2023-04-25T07:27:13;100215.22;;;18.69;100.00
37368;BME280;23240;43.210;27.910;2023-04-25T07:29:39;100207.41;;;18.96;95.56
37368;BME280;23240;43.210;27.910;2023-04-25T07:32:04;100207.50;;;19.09;94.58
37368;BME280;23240;43.210;27.910;2023-04-25T07:34:30;100194.28;;;19.21;92.45
37368;BME280;23240;43.210;27.910;2023-04-25T07:36:55;100192.38;;;19.43;87.40
37368;BME280;23240;43.210;27.910;2023-04-25T07:39:20;100184.03;;;19.44;88.27
37368;BME280;23240;43.210;27.910;2023-04-25T07:41:48;100194.50;;;19.69;84.49
37368;BME280;23240;43.210;27.910;2023-04-25T07:44:13;100188.72;;;19.57;86.85
37368;BME280;23240;43.210;27.910;2023-04-25T07:46:38;100193.00;;;19.66;86.32
37368;BME280;23240;43.210;27.910;2023-04-25T07:49:04;100189.31;;;19.74;84.73
37368;BME280;23240;43.210;27.910;2023-04-25T07:51:29;100189.19;;;19.89;84.00
37368;BME280;23240;43.210;27.910;2023-04-25T07:53:54;100183.47;;;19.77;84.32
37368;BME280;23240;43.210;27.910;2023-04-25T07:56:20;100186.78;;;19.23;86.01
37368;BME280;23240;43.210;27.910;2023-04-25T07:58:45;100184.47;;;18.62;91.96
37368;BME280;23240;43.210;27.910;2023-04-25T08:01:10;100180.34;;;18.52;96.32
37368;BME280;23240;43.210;27.910;2023-04-25T08:03:36;100183.19;;;18.43;100.00
37368;BME280;23240;43.210;27.910;2023-04-25T08:06:01;100187.34;;;18.10;100.00
37368;BME280;23240;43.210;27.910;2023-04-25T08:08:26;100185.28;;;17.59;100.00
37368;BME280;23240;43.210;27.910;2023-04-25T08:10:51;100176.16;;;17.23;100.00
37368;BME280;23240;43.210;27.910;2023-04-25T08:13:17;100184.88;;;17.10;100.00
37368;BME280;23240;43.210;27.910;2023-04-25T08:15:42;100186.88;;;17.16;100.00
37368;BME280;23240;43.210;27.910;2023-04-25T08:18:07;100198.16;;;16.96;100.00
37368;BME280;23240;43.210;27.910;2023-04-25T08:20:33;100201.63;;;16.82;100.00
37368;BME280;23240;43.210;27.910;2023-04-25T08:22:58;100197.03;;;16.60;100.00
37368;BME280;23240;43.210;27.910;2023-04-25T08:25:23;100198.53;;;16.23;100.00
37368;BME280;23240;43.210;27.910;2023-04-25T08:27:49;100200.75;;;16.19;100.00
37368;BME280;23240;43.210;27.910;2023-04-25T08:30:14;100201.31;;;16.07;100.00
37368;BME280;23240;43.210;27.910;2023-04-25T08:32:39;100196.47;;;16.33;100.00
37368;BME280;23240;43.210;27.910;2023-04-25T08:35:05;100198.94;;;16.51;100.00
37368;BME280;23240;43.210;27.910;2023-04-25T08:37:31;100205.97;;;16.60;100.00
37368;BME280;23240;43.210;27.910;2023-04-25T08:39:56;100198.31;;;16.41;100.00
37368;BME280;23240;43.210;27.910;2023-04-25T08:42:21;100195.38;;;16.51;100.00
37368;BME280;23240;43.210;27.910;2023-04-25T08:44:47;100197.03;;;16.60;100.00
37368;BME280;23240;43.210;27.910;2023-04-25T08:47:13;100194.63;;;16.65;100.00
37368;BME280;23240;43.210;27.910;2023-04-25T08:49:38;100201.41;;;16.30;100.00
37368;BME280;23240;43.210;27.910;2023-04-25T08:52:06;100200.41;;;16.23;100.00
37368;BME280;23240;43.210;27.910;2023-04-25T08:54:32;100199.22;;;16.25;100.00
37368;BME280;23240;43.210;27.910;2023-04-25T08:57:00;100197.88;;;16.21;100.00
37368;BME280;23240;43.210;27.910;2023-04-25T08:59:32;100202.13;;;16.15;100.00
37368;BME280;23240;43.210;27.910;2023-04-25T09:01:57;100206.13;;;16.28;100.00
37368;BME280;23240;43.210;27.910;2023-04-25T09:04:23;100212.38;;;16.28;100.00
37368;BME280;23240;43.210;27.910;2023-04-25T09:06:48;100208.69;;;16.21;100.00
37368;BME280;23240;43.210;27.910;2023-04-25T09:09:14;100204.47;;;16.18;100.00
37368;BME280;23240;43.210;27.910;2023-04-25T09:11:39;100199.91;;;16.19;100.00
37368;BME280;23240;43.210;27.910;2023-04-25T09:19:21;100180.09;;;16.66;100.00
37368;BME280;23240;43.210;27.910;2023-04-25T09:21:50;100180.91;;;16.75;100.00
37368;BME280;23240;43.210;27.910;2023-04-25T09:24:16;100183.09;;;16.71;100.00
37368;BME280;23240;43.210;27.910;2023-04-25T09:26:41;100181.84;;;16.59;100.00
37368;BME280;23240;43.210;27.910;2023-04-25T09:29:07;100179.81;;;16.53;100.00
37368;BME280;23240;43.210;27.910;2023-04-25T09:31:33;100178.41;;;16.65;100.00
37368;BME280;23240;43.210;27.910;2023-04-25T09:33:58;100171.97;;;16.74;100.00
37368;BME280;23240;43.210;27.910;2023-04-25T09:36:25;100173.94;;;16.80;100.00
37368;BME280;23240;43.210;27.910;2023-04-25T09:38:51;100175.94;;;16.86;100.00
37368;BME280;23240;43.210;27.910;2023-04-25T09:41:22;100178.16;;;17.06;100.00
37368;BME280;23240;43.210;27.910;2023-04-25T09:43:48;100162.78;;;17.21;100.00
37368;BME280;23240;43.210;27.910;2023-04-25T09:46:14;100165.09;;;17.32;100.00
37368;BME280;23240;43.210;27.910;2023-04-25T09:48:40;100159.28;;;17.35;100.00
37368;BME280;23240;43.210;27.910;2023-04-25T09:51:13;100161.84;;;17.14;100.00
37368;BME280;23240;43.210;27.910;2023-04-25T09:53:39;100162.44;;;17.24;100.00
37368;BME280;23240;43.210;27.910;2023-04-25T09:56:06;100157.06;;;17.39;100.00
37368;BME280;23240;43.210;27.910;2023-04-25T09:58:32;100159.72;;;17.62;100.00
37368;BME280;23240;43.210;27.910;2023-04-25T10:00:59;100152.94;;;17.95;100.00
37368;BME280;23240;43.210;27.910;2023-04-25T10:03:25;100142.38;;;18.15;100.00
37368;BME280;23240;43.210;27.910;2023-04-25T10:05:51;100143.00;;;18.17;100.00
37368;BME280;23240;43.210;27.910;2023-04-25T10:08:17;100141.59;;;18.21;100.00
37368;BME280;23240;43.210;27.910;2023-04-25T10:10:43;100144.56;;;18.41;100.00
37368;BME280;23240;43.210;27.910;2023-04-25T10:13:09;100127.16;;;18.87;94.51
37368;BME280;23240;43.210;27.910;2023-04-25T10:15:35;100133.00;;;19.12;92.28
37368;BME280;23240;43.210;27.910;2023-04-25T10:18:04;100125.50;;;19.63;88.53
37368;BME280;23240;43.210;27.910;2023-04-25T10:20:30;100122.66;;;20.19;82.47
37368;BME280;23240;43.210;27.910;2023-04-25T10:22:57;100118.47;;;20.23;80.05
37368;BME280;23240;43.210;27.910;2023-04-25T10:25:23;100118.50;;;20.30;80.43
37368;BME280;23240;43.210;27.910;2023-04-25T10:27:52;100114.34;;;20.34;78.21
37368;BME280;23240;43.210;27.910;2023-04-25T10:30:17;100104.56;;;19.98;81.14
37368;BME280;23240;43.210;27.910;2023-04-25T10:32:43;100108.84;;;19.45;88.35
37368;BME280;23240;43.210;27.910;2023-04-25T10:35:12;100101.03;;;19.35;89.43
37368;BME280;23240;43.210;27.910;2023-04-25T10:37:38;100104.66;;;18.93;94.55
37368;BME280;23240;43.210;27.910;2023-04-25T10:40:10;100095.94;;;18.61;99.85
37368;BME280;23240;43.210;27.910;2023-04-25T10:42:35;100102.50;;;18.31;100.00
37368;BME280;23240;43.210;27.910;2023-04-25T10:45:04;100099.00;;;18.15;100.00
37368;BME280;23240;43.210;27.910;2023-04-25T10:47:36;100102.09;;;18.12;100.00
37368;BME280;23240;43.210;27.910;2023-04-25T10:50:08;100100.34;;;18.05;100.00
37368;BME280;23240;43.210;27.910;2023-04-25T10:52:33;100106.50;;;17.84;100.00
37368;BME280;23240;43.210;27.910;2023-04-25T10:54:59;100101.75;;;17.86;100.00
37368;BME280;23240;43.210;27.910;2023-04-25T11:00:07;100087.53;;;17.54;100.00
37368;BME280;23240;43.210;27.910;2023-04-25T11:05:10;100100.66;;;17.13;100.00
37368;BME280;23240;43.210;27.910;2023-04-25T11:10:10;100097.78;;;16.91;100.00
37368;BME280;23240;43.210;27.910;2023-04-25T11:12:35;100093.44;;;16.82;100.00
37368;BME280;23240;43.210;27.910;2023-04-25T11:15:01;100095.44;;;16.88;100.00
37368;BME280;23240;43.210;27.910;2023-04-25T11:17:27;100099.69;;;17.06;100.00
37368;BME280;23240;43.210;27.910;2023-04-25T11:19:53;100100.13;;;17.32;100.00
37368;BME280;23240;43.210;27.910;2023-04-25T11:22:19;100100.66;;;17.13;100.00
37368;BME280;23240;43.210;27.910;2023-04-25T11:24:46;100097.97;;;16.90;100.00
37368;BME280;23240;43.210;27.910;2023-04-25T11:27:11;100099.09;;;16.95;100.00
37368;BME280;23240;43.210;27.910;2023-04-25T11:29:37;100092.84;;;16.95;100.00
37368;BME280;23240;43.210;27.910;2023-04-25T11:32:02;100095.72;;;17.16;100.00
37368;BME280;23240;43.210;27.910;2023-04-25T11:34:28;100086.19;;;17.20;100.00
37368;BME280;23240;43.210;27.910;2023-04-25T11:36:55;100088.00;;;17.58;100.00
37368;BME280;23240;43.210;27.910;2023-04-25T11:39:21;100088.69;;;17.89;100.00
37368;BME280;23240;43.210;27.910;2023-04-25T11:41:46;100075.59;;;18.29;100.00
37368;BME280;23240;43.210;27.910;2023-04-25T11:44:12;100075.13;;;18.62;100.00
37368;BME280;23240;43.210;27.910;2023-04-25T11:46:40;100074.88;;;18.78;96.11
37368;BME280;23240;43.210;27.910;2023-04-25T11:49:05;100070.63;;;18.69;92.24
37368;BME280;23240;43.210;27.910;2023-04-25T11:51:37;100072.31;;;18.34;92.89
37368;BME280;23240;43.210;27.910;2023-04-25T11:54:02;100075.19;;;18.11;95.68
37368;BME280;23240;43.210;27.910;2023-04-25T11:56:28;100063.22;;;18.05;97.83
37368;BME280;23240;43.210;27.910;2023-04-25T11:59:00;100078.31;;;18.29;97.07
37368;BME280;23240;43.210;27.910;2023-04-25T12:03:51;100075.75;;;18.42;85.68
37368;BME280;23240;43.210;27.910;2023-04-25T12:06:17;100070.25;;;18.00;85.42
37368;BME280;23240;43.210;27.910;2023-04-25T12:08:58;100070.00;;;17.80;85.20
37368;BME280;23240;43.210;27.910;2023-04-25T12:11:23;100053.06;;;17.63;85.89
37368;BME280;23240;43.210;27.910;2023-04-25T12:13:51;100050.91;;;17.58;86.94
37368;BME280;23240;43.210;27.910;2023-04-25T12:16:16;100048.56;;;17.40;89.17
37368;BME280;23240;43.210;27.910;2023-04-25T12:18:41;100056.69;;;17.40;89.06
37368;BME280;23240;43.210;27.910;2023-04-25T12:21:07;100064.19;;;17.38;89.46
37368;BME280;23240;43.210;27.910;2023-04-25T12:23:34;100055.13;;;17.31;91.52
37368;BME280;23240;43.210;27.910;2023-04-25T12:26:03;100056.06;;;17.24;92.16
37368;BME280;23240;43.210;27.910;2023-04-25T12:28:31;100052.88;;;17.20;93.67
37368;BME280;23240;43.210;27.910;2023-04-25T12:31:04;100053.63;;;17.14;95.72
37368;BME280;23240;43.210;27.910;2023-04-25T12:33:39;100047.28;;;17.07;96.73
37368;BME280;23240;43.210;27.910;2023-04-25T12:36:06;100044.34;;;16.93;100.00
37368;BME280;23240;43.210;27.910;2023-04-25T12:38:36;100052.78;;;16.76;100.00
37368;BME280;23240;43.210;27.910;2023-04-25T12:41:02;100047.28;;;16.61;100.00